sensor_id;sensor_type;location;lat;lon;timestamp;temperature;humidity
53254;DHT22;39148;53.332;6.922;2023-08-06T00:00:21;19.60;84.40
53254;DHT22;39148;53.332;6.922;2023-08-06T00:02:47;19.50;84.60
53254;DHT22;39148;53.332;6.922;2023-08-06T00:05:13;19.50;84.40
53254;DHT22;39148;53.332;6.922;2023-08-06T00:07:43;19.50;84.40
53254;DHT22;39148;53.332;6.922;2023-08-06T00:10:09;19.60;84.60
53254;DHT22;39148;53.332;6.922;2023-08-06T00:12:35;19.60;84.50
53254;DHT22;39148;53.332;6.922;2023-08-06T00:15:00;19.50;84.50
53254;DHT22;39148;53.332;6.922;2023-08-06T00:17:26;19.50;84.50
53254;DHT22;39148;53.332;6.922;2023-08-06T00:19:52;19.50;84.60
53254;DHT22;39148;53.332;6.922;2023-08-06T00:22:17;19.60;84.60
53254;DHT22;39148;53.332;6.922;2023-08-06T00:24:43;19.50;84.60
53254;DHT22;39148;53.332;6.922;2023-08-06T00:27:09;19.50;84.60
53254;DHT22;39148;53.332;6.922;2023-08-06T00:29:34;19.50;84.60
53254;DHT22;39148;53.332;6.922;2023-08-06T00:32:00;19.50;84.60
53254;DHT22;39148;53.332;6.922;2023-08-06T00:34:26;19.50;84.70
53254;DHT22;39148;53.332;6.922;2023-08-06T00:36:51;19.50;84.80
53254;DHT22;39148;53.332;6.922;2023-08-06T00:39:19;19.50;84.70
53254;DHT22;39148;53.332;6.922;2023-08-06T00:41:44;19.40;84.70
53254;DHT22;39148;53.332;6.922;2023-08-06T00:44:10;19.40;84.70
53254;DHT22;39148;53.332;6.922;2023-08-06T00:46:36;19.40;84.70
53254;DHT22;39148;53.332;6.922;2023-08-06T00:49:01;19.30;84.60
53254;DHT22;39148;53.332;6.922;2023-08-06T00:51:27;19.40;84.80
53254;DHT22;39148;53.332;6.922;2023-08-06T00:53:54;19.30;84.60
53254;DHT22;39148;53.332;6.922;2023-08-06T00:56:20;19.40;84.90
53254;DHT22;39148;53.332;6.922;2023-08-06T00:58:46;19.30;85.20
53254;DHT22;39148;53.332;6.922;2023-08-06T01:01:12;19.30;84.80
53254;DHT22;39148;53.332;6.922;2023-08-06T01:03:38;19.40;84.80
53254;DHT22;39148;53.332;6.922;2023-08-06T01:06:04;19.30;84.90
53254;DHT22;39148;53.332;6.922;2023-08-06T01:09:13;19.30;84.90
53254;DHT22;39148;53.332;6.922;2023-08-06T01:11:44;19.10;85.60
53254;DHT22;39148;53.332;6.922;2023-08-06T01:14:28;19.20;83.70
53254;DHT22;39148;53.332;6.922;2023-08-06T01:16:54;19.30;83.70
53254;DHT22;39148;53.332;6.922;2023-08-06T01:19:21;19.30;85.00
53254;DHT22;39148;53.332;6.922;2023-08-06T01:21:47;19.20;84.80
53254;DHT22;39148;53.332;6.922;2023-08-06T01:24:13;19.30;84.90
53254;DHT22;39148;53.332;6.922;2023-08-06T01:26:55;19.20;84.90
53254;DHT22;39148;53.332;6.922;2023-08-06T01:29:39;19.30;85.40
53254;DHT22;39148;53.332;6.922;2023-08-06T01:32:08;19.20;85.30
53254;DHT22;39148;53.332;6.922;2023-08-06T01:34:38;19.20;85.10
53254;DHT22;39148;53.332;6.922;2023-08-06T01:37:04;19.20;85.10
53254;DHT22;39148;53.332;6.922;2023-08-06T01:39:33;19.30;85.00
53254;DHT22;39148;53.332;6.922;2023-08-06T01:41:59;19.20;85.10
53254;DHT22;39148;53.332;6.922;2023-08-06T01:44:24;19.20;85.00
53254;DHT22;39148;53.332;6.922;2023-08-06T01:46:50;19.10;84.90
53254;DHT22;39148;53.332;6.922;2023-08-06T01:49:16;19.10;85.00
53254;DHT22;39148;53.332;6.922;2023-08-06T01:51:41;19.10;85.00
53254;DHT22;39148;53.332;6.922;2023-08-06T01:54:07;19.20;85.00
53254;DHT22;39148;53.332;6.922;2023-08-06T01:56:33;19.10;85.00
53254;DHT22;39148;53.332;6.922;2023-08-06T01:58:58;19.10;85.00
53254;DHT22;39148;53.332;6.922;2023-08-06T02:01:24;19.10;85.00
53254;DHT22;39148;53.332;6.922;2023-08-06T02:03:50;19.10;85.10
53254;DHT22;39148;53.332;6.922;2023-08-06T02:06:15;19.10;85.10
53254;DHT22;39148;53.332;6.922;2023-08-06T02:08:41;19.00;85.10
53254;DHT22;39148;53.332;6.922;2023-08-06T02:11:07;19.00;85.00
53254;DHT22;39148;53.332;6.922;2023-08-06T02:13:33;19.10;85.10
53254;DHT22;39148;53.332;6.922;2023-08-06T02:15:58;19.10;85.10
53254;DHT22;39148;53.332;6.922;2023-08-06T02:18:24;19.10;85.20
53254;DHT22;39148;53.332;6.922;2023-08-06T02:20:57;19.00;85.10
53254;DHT22;39148;53.332;6.922;2023-08-06T02:23:23;19.10;85.50
53254;DHT22;39148;53.332;6.922;2023-08-06T02:25:56;19.10;85.20
53254;DHT22;39148;53.332;6.922;2023-08-06T02:28:21;19.00;85.30
53254;DHT22;39148;53.332;6.922;2023-08-06T02:30:53;19.00;85.20
53254;DHT22;39148;53.332;6.922;2023-08-06T02:33:19;19.00;85.40
53254;DHT22;39148;53.332;6.922;2023-08-06T02:35:44;18.90;85.10
53254;DHT22;39148;53.332;6.922;2023-08-06T02:38:10;18.90;85.20
53254;DHT22;39148;53.332;6.922;2023-08-06T02:40:36;19.00;85.20
53254;DHT22;39148;53.332;6.922;2023-08-06T02:43:01;18.90;85.20
53254;DHT22;39148;53.332;6.922;2023-08-06T02:45:28;18.90;85.70
53254;DHT22;39148;53.332;6.922;2023-08-06T02:47:54;19.00;85.40
53254;DHT22;39148;53.332;6.922;2023-08-06T02:50:19;18.90;85.30
53254;DHT22;39148;53.332;6.922;2023-08-06T02:52:45;18.90;85.20
53254;DHT22;39148;53.332;6.922;2023-08-06T02:55:11;18.90;85.30
53254;DHT22;39148;53.332;6.922;2023-08-06T02:57:36;18.90;85.30
53254;DHT22;39148;53.332;6.922;2023-08-06T03:00:02;18.90;85.30
53254;DHT22;39148;53.332;6.922;2023-08-06T03:02:28;18.90;85.20
53254;DHT22;39148;53.332;6.922;2023-08-06T03:04:54;18.80;85.30
53254;DHT22;39148;53.332;6.922;2023-08-06T03:07:19;18.80;85.30
53254;DHT22;39148;53.332;6.922;2023-08-06T03:09:45;18.90;85.40
53254;DHT22;39148;53.332;6.922;2023-08-06T03:12:11;18.90;85.30
53254;DHT22;39148;53.332;6.922;2023-08-06T03:14:36;18.80;85.30
53254;DHT22;39148;53.332;6.922;2023-08-06T03:17:02;18.90;85.40
53254;DHT22;39148;53.332;6.922;2023-08-06T03:19:28;18.90;85.30
53254;DHT22;39148;53.332;6.922;2023-08-06T03:21:53;18.90;85.50
53254;DHT22;39148;53.332;6.922;2023-08-06T03:24:19;18.80;85.60
53254;DHT22;39148;53.332;6.922;2023-08-06T03:26:45;18.60;85.30
53254;DHT22;39148;53.332;6.922;2023-08-06T03:29:11;18.80;85.50
53254;DHT22;39148;53.332;6.922;2023-08-06T03:31:36;18.80;85.50
53254;DHT22;39148;53.332;6.922;2023-08-06T03:34:02;18.70;85.40
53254;DHT22;39148;53.332;6.922;2023-08-06T03:36:28;18.90;85.50
53254;DHT22;39148;53.332;6.922;2023-08-06T03:38:53;18.80;85.50
53254;DHT22;39148;53.332;6.922;2023-08-06T03:41:19;18.80;85.60
53254;DHT22;39148;53.332;6.922;2023-08-06T03:43:45;18.80;85.60
53254;DHT22;39148;53.332;6.922;2023-08-06T03:46:10;18.70;85.50
53254;DHT22;39148;53.332;6.922;2023-08-06T03:48:36;18.80;85.60
53254;DHT22;39148;53.332;6.922;2023-08-06T03:51:03;18.70;85.40
53254;DHT22;39148;53.332;6.922;2023-08-06T03:53:29;18.70;85.40
53254;DHT22;39148;53.332;6.922;2023-08-06T03:55:54;18.60;85.50
53254;DHT22;39148;53.332;6.922;2023-08-06T03:58:25;18.70;85.70
53254;DHT22;39148;53.332;6.922;2023-08-06T04:01:00;18.70;85.70
53254;DHT22;39148;53.332;6.922;2023-08-06T04:03:26;18.70;84.70
53254;DHT22;39148;53.332;6.922;2023-08-06T04:05:53;18.60;85.70
53254;DHT22;39148;53.332;6.922;2023-08-06T04:08:19;18.70;85.80
53254;DHT22;39148;53.332;6.922;2023-08-06T04:10:44;18.70;85.80
53254;DHT22;39148;53.332;6.922;2023-08-06T04:13:10;18.70;85.70
53254;DHT22;39148;53.332;6.922;2023-08-06T04:15:36;18.70;85.70
53254;DHT22;39148;53.332;6.922;2023-08-06T04:18:01;18.60;85.70
53254;DHT22;39148;53.332;6.922;2023-08-06T04:20:27;18.70;85.70
53254;DHT22;39148;53.332;6.922;2023-08-06T04:22:54;18.70;85.80
53254;DHT22;39148;53.332;6.922;2023-08-06T04:25:21;18.60;85.90
53254;DHT22;39148;53.332;6.922;2023-08-06T04:27:47;18.50;85.70
53254;DHT22;39148;53.332;6.922;2023-08-06T04:30:13;18.70;85.90
53254;DHT22;39148;53.332;6.922;2023-08-06T04:32:40;18.60;85.80
53254;DHT22;39148;53.332;6.922;2023-08-06T04:35:06;18.70;85.90
53254;DHT22;39148;53.332;6.922;2023-08-06T04:37:32;18.70;85.60
53254;DHT22;39148;53.332;6.922;2023-08-06T04:39:57;18.50;85.80
53254;DHT22;39148;53.332;6.922;2023-08-06T04:42:23;18.70;85.90
53254;DHT22;39148;53.332;6.922;2023-08-06T04:44:49;18.50;85.80
53254;DHT22;39148;53.332;6.922;2023-08-06T04:47:15;18.70;85.90
53254;DHT22;39148;53.332;6.922;2023-08-06T04:49:40;18.60;85.90
53254;DHT22;39148;53.332;6.922;2023-08-06T04:52:06;18.60;85.90
53254;DHT22;39148;53.332;6.922;2023-08-06T04:54:32;18.50;85.70
53254;DHT22;39148;53.332;6.922;2023-08-06T04:56:57;18.50;85.90
53254;DHT22;39148;53.332;6.922;2023-08-06T04:59:23;18.60;85.90
53254;DHT22;39148;53.332;6.922;2023-08-06T05:01:49;18.50;87.80
53254;DHT22;39148;53.332;6.922;2023-08-06T05:04:14;18.50;85.90
53254;DHT22;39148;53.332;6.922;2023-08-06T05:06:40;18.70;86.00
53254;DHT22;39148;53.332;6.922;2023-08-06T05:09:06;18.50;85.90
53254;DHT22;39148;53.332;6.922;2023-08-06T05:11:32;18.50;85.90
53254;DHT22;39148;53.332;6.922;2023-08-06T05:13:58;18.60;86.00
53254;DHT22;39148;53.332;6.922;2023-08-06T05:16:23;18.50;86.00
53254;DHT22;39148;53.332;6.922;2023-08-06T05:18:49;18.50;86.00
53254;DHT22;39148;53.332;6.922;2023-08-06T05:21:15;18.50;86.00
53254;DHT22;39148;53.332;6.922;2023-08-06T05:23:42;18.50;86.00
53254;DHT22;39148;53.332;6.922;2023-08-06T05:26:08;18.50;86.10
53254;DHT22;39148;53.332;6.922;2023-08-06T05:28:34;18.60;86.10
53254;DHT22;39148;53.332;6.922;2023-08-06T05:31:04;18.40;86.00
53254;DHT22;39148;53.332;6.922;2023-08-06T05:33:30;18.50;86.30
53254;DHT22;39148;53.332;6.922;2023-08-06T05:35:56;18.50;86.20
53254;DHT22;39148;53.332;6.922;2023-08-06T05:38:21;18.40;86.00
53254;DHT22;39148;53.332;6.922;2023-08-06T05:40:47;18.50;86.00
53254;DHT22;39148;53.332;6.922;2023-08-06T05:43:13;18.50;86.10
53254;DHT22;39148;53.332;6.922;2023-08-06T05:45:39;18.50;86.10
53254;DHT22;39148;53.332;6.922;2023-08-06T05:48:04;18.50;86.10
53254;DHT22;39148;53.332;6.922;2023-08-06T05:50:30;18.40;86.10
53254;DHT22;39148;53.332;6.922;2023-08-06T05:52:56;18.30;86.00
53254;DHT22;39148;53.332;6.922;2023-08-06T05:55:22;18.50;86.20
53254;DHT22;39148;53.332;6.922;2023-08-06T05:57:47;20.80;87.30
53254;DHT22;39148;53.332;6.922;2023-08-06T06:00:13;18.50;86.20
53254;DHT22;39148;53.332;6.922;2023-08-06T06:02:39;18.50;86.00
53254;DHT22;39148;53.332;6.922;2023-08-06T06:05:05;18.50;88.10
53254;DHT22;39148;53.332;6.922;2023-08-06T06:07:30;18.50;86.10
53254;DHT22;39148;53.332;6.922;2023-08-06T06:09:56;18.50;86.20
53254;DHT22;39148;53.332;6.922;2023-08-06T06:12:22;18.50;86.20
53254;DHT22;39148;53.332;6.922;2023-08-06T06:14:48;18.50;86.20
53254;DHT22;39148;53.332;6.922;2023-08-06T06:17:13;18.50;86.20
53254;DHT22;39148;53.332;6.922;2023-08-06T06:19:39;18.50;86.20
53254;DHT22;39148;53.332;6.922;2023-08-06T06:22:04;18.40;88.30
53254;DHT22;39148;53.332;6.922;2023-08-06T06:24:30;18.50;86.10
53254;DHT22;39148;53.332;6.922;2023-08-06T06:26:56;18.50;86.20
53254;DHT22;39148;53.332;6.922;2023-08-06T06:29:21;18.60;86.20
53254;DHT22;39148;53.332;6.922;2023-08-06T06:31:47;18.50;88.00
53254;DHT22;39148;53.332;6.922;2023-08-06T06:34:13;18.50;86.20
53254;DHT22;39148;53.332;6.922;2023-08-06T06:36:38;18.50;86.20
53254;DHT22;39148;53.332;6.922;2023-08-06T06:39:04;18.50;86.20
53254;DHT22;39148;53.332;6.922;2023-08-06T06:41:30;18.40;86.10
53254;DHT22;39148;53.332;6.922;2023-08-06T06:43:58;18.50;86.20
53254;DHT22;39148;53.332;6.922;2023-08-06T06:46:24;18.40;86.10
53254;DHT22;39148;53.332;6.922;2023-08-06T06:48:50;18.50;86.10
53254;DHT22;39148;53.332;6.922;2023-08-06T06:51:15;18.50;86.20
53254;DHT22;39148;53.332;6.922;2023-08-06T06:53:41;19.00;86.20
53254;DHT22;39148;53.332;6.922;2023-08-06T06:56:07;18.50;86.20
53254;DHT22;39148;53.332;6.922;2023-08-06T06:58:32;18.50;86.20
53254;DHT22;39148;53.332;6.922;2023-08-06T07:00:58;18.50;86.10
53254;DHT22;39148;53.332;6.922;2023-08-06T07:03:24;18.50;86.20
53254;DHT22;39148;53.332;6.922;2023-08-06T07:05:50;18.60;86.30
53254;DHT22;39148;53.332;6.922;2023-08-06T07:08:16;18.50;86.20
53254;DHT22;39148;53.332;6.922;2023-08-06T07:10:42;18.50;86.20
53254;DHT22;39148;53.332;6.922;2023-08-06T07:13:08;18.50;86.20
53254;DHT22;39148;53.332;6.922;2023-08-06T07:15:34;18.40;86.20
53254;DHT22;39148;53.332;6.922;2023-08-06T07:18:01;18.50;86.10
53254;DHT22;39148;53.332;6.922;2023-08-06T07:20:27;18.50;86.20
53254;DHT22;39148;53.332;6.922;2023-08-06T07:22:58;18.40;86.10
53254;DHT22;39148;53.332;6.922;2023-08-06T07:25:24;18.60;86.20
53254;DHT22;39148;53.332;6.922;2023-08-06T07:27:49;18.50;86.20
53254;DHT22;39148;53.332;6.922;2023-08-06T07:30:15;18.70;86.30
53254;DHT22;39148;53.332;6.922;2023-08-06T07:32:41;18.60;86.20
53254;DHT22;39148;53.332;6.922;2023-08-06T07:35:07;18.60;86.20
53254;DHT22;39148;53.332;6.922;2023-08-06T07:37:35;18.70;86.00
53254;DHT22;39148;53.332;6.922;2023-08-06T07:40:00;18.70;86.20
53254;DHT22;39148;53.332;6.922;2023-08-06T07:42:26;18.80;86.20
53254;DHT22;39148;53.332;6.922;2023-08-06T07:44:53;18.70;86.20
53254;DHT22;39148;53.332;6.922;2023-08-06T07:47:19;18.80;86.40
53254;DHT22;39148;53.332;6.922;2023-08-06T07:49:45;18.60;86.10
53254;DHT22;39148;53.332;6.922;2023-08-06T07:52:11;18.70;86.20
53254;DHT22;39148;53.332;6.922;2023-08-06T07:54:37;18.80;86.00
53254;DHT22;39148;53.332;6.922;2023-08-06T07:57:02;18.80;86.20
53254;DHT22;39148;53.332;6.922;2023-08-06T07:59:28;18.90;86.00
53254;DHT22;39148;53.332;6.922;2023-08-06T08:01:54;18.90;86.30
53254;DHT22;39148;53.332;6.922;2023-08-06T08:04:19;18.80;86.10
53254;DHT22;39148;53.332;6.922;2023-08-06T08:06:46;18.80;86.10
53254;DHT22;39148;53.332;6.922;2023-08-06T08:09:13;18.90;86.20
53254;DHT22;39148;53.332;6.922;2023-08-06T08:11:40;18.90;86.20
53254;DHT22;39148;53.332;6.922;2023-08-06T08:14:06;18.90;86.20
53254;DHT22;39148;53.332;6.922;2023-08-06T08:16:32;18.90;86.00
53254;DHT22;39148;53.332;6.922;2023-08-06T08:18:57;19.00;86.00
53254;DHT22;39148;53.332;6.922;2023-08-06T08:21:23;19.10;86.00
53254;DHT22;39148;53.332;6.922;2023-08-06T08:23:52;19.10;86.10
53254;DHT22;39148;53.332;6.922;2023-08-06T08:26:18;19.10;86.00
53254;DHT22;39148;53.332;6.922;2023-08-06T08:28:44;19.20;86.00
53254;DHT22;39148;53.332;6.922;2023-08-06T08:31:10;19.20;85.90
53254;DHT22;39148;53.332;6.922;2023-08-06T08:33:37;19.20;86.00
53254;DHT22;39148;53.332;6.922;2023-08-06T08:36:03;19.20;86.00
53254;DHT22;39148;53.332;6.922;2023-08-06T08:38:29;19.20;85.80
53254;DHT22;39148;53.332;6.922;2023-08-06T08:40:55;19.40;85.90
53254;DHT22;39148;53.332;6.922;2023-08-06T08:43:22;19.30;85.90
53254;DHT22;39148;53.332;6.922;2023-08-06T08:45:50;19.30;85.90
53254;DHT22;39148;53.332;6.922;2023-08-06T08:48:16;19.40;85.90
53254;DHT22;39148;53.332;6.922;2023-08-06T08:50:45;19.40;85.80
53254;DHT22;39148;53.332;6.922;2023-08-06T08:53:11;19.40;85.80
53254;DHT22;39148;53.332;6.922;2023-08-06T08:55:38;19.50;85.70
53254;DHT22;39148;53.332;6.922;2023-08-06T08:58:04;19.50;85.70
53254;DHT22;39148;53.332;6.922;2023-08-06T09:00:30;19.60;85.60
53254;DHT22;39148;53.332;6.922;2023-08-06T09:02:59;19.60;85.60
53254;DHT22;39148;53.332;6.922;2023-08-06T09:05:27;19.60;85.50
53254;DHT22;39148;53.332;6.922;2023-08-06T09:07:55;19.60;85.50
53254;DHT22;39148;53.332;6.922;2023-08-06T09:10:23;19.80;85.60
53254;DHT22;39148;53.332;6.922;2023-08-06T09:12:51;19.70;85.40
53254;DHT22;39148;53.332;6.922;2023-08-06T09:15:20;19.70;85.40
53254;DHT22;39148;53.332;6.922;2023-08-06T09:17:45;19.80;85.20
53254;DHT22;39148;53.332;6.922;2023-08-06T09:20:15;19.80;85.10
53254;DHT22;39148;53.332;6.922;2023-08-06T09:22:41;19.90;84.90
53254;DHT22;39148;53.332;6.922;2023-08-06T09:25:07;19.90;85.00
53254;DHT22;39148;53.332;6.922;2023-08-06T09:27:37;19.90;84.70
53254;DHT22;39148;53.332;6.922;2023-08-06T09:30:03;20.00;85.10
53254;DHT22;39148;53.332;6.922;2023-08-06T09:32:49;20.00;84.90
53254;DHT22;39148;53.332;6.922;2023-08-06T09:35:17;20.00;85.30
53254;DHT22;39148;53.332;6.922;2023-08-06T09:37:43;20.10;85.00
53254;DHT22;39148;53.332;6.922;2023-08-06T09:42:53;20.10;84.00
53254;DHT22;39148;53.332;6.922;2023-08-06T09:45:19;20.10;84.70
53254;DHT22;39148;53.332;6.922;2023-08-06T09:47:44;20.20;85.10
53254;DHT22;39148;53.332;6.922;2023-08-06T09:50:18;20.20;84.60
53254;DHT22;39148;53.332;6.922;2023-08-06T09:52:44;20.20;84.80
53254;DHT22;39148;53.332;6.922;2023-08-06T09:55:14;20.30;84.50
53254;DHT22;39148;53.332;6.922;2023-08-06T09:57:43;20.30;84.50
53254;DHT22;39148;53.332;6.922;2023-08-06T10:00:10;20.30;84.50
53254;DHT22;39148;53.332;6.922;2023-08-06T10:02:39;20.20;84.10
53254;DHT22;39148;53.332;6.922;2023-08-06T10:05:06;20.40;84.50
53254;DHT22;39148;53.332;6.922;2023-08-06T10:07:32;20.40;84.20
53254;DHT22;39148;53.332;6.922;2023-08-06T10:09:58;20.50;84.10
53254;DHT22;39148;53.332;6.922;2023-08-06T10:12:26;20.50;84.10
53254;DHT22;39148;53.332;6.922;2023-08-06T10:14:55;20.60;84.20
53254;DHT22;39148;53.332;6.922;2023-08-06T10:17:23;20.60;84.10
53254;DHT22;39148;53.332;6.922;2023-08-06T10:19:50;20.60;83.90
53254;DHT22;39148;53.332;6.922;2023-08-06T10:22:17;20.50;83.80
53254;DHT22;39148;53.332;6.922;2023-08-06T10:24:51;20.70;83.80
53254;DHT22;39148;53.332;6.922;2023-08-06T10:29:47;20.70;83.70
53254;DHT22;39148;53.332;6.922;2023-08-06T10:32:14;20.80;83.50
53254;DHT22;39148;53.332;6.922;2023-08-06T10:34:55;20.90;83.40
53254;DHT22;39148;53.332;6.922;2023-08-06T10:37:22;20.80;83.80
53254;DHT22;39148;53.332;6.922;2023-08-06T10:39:52;20.90;83.40
53254;DHT22;39148;53.332;6.922;2023-08-06T10:42:28;21.00;83.40
53254;DHT22;39148;53.332;6.922;2023-08-06T10:45:17;20.80;83.40
53254;DHT22;39148;53.332;6.922;2023-08-06T10:47:44;20.90;82.20
53254;DHT22;39148;53.332;6.922;2023-08-06T10:50:15;21.00;83.20
53254;DHT22;39148;53.332;6.922;2023-08-06T10:52:45;21.10;83.30
53254;DHT22;39148;53.332;6.922;2023-08-06T10:55:12;21.10;81.90
53254;DHT22;39148;53.332;6.922;2023-08-06T10:57:38;21.10;83.00
53254;DHT22;39148;53.332;6.922;2023-08-06T11:00:05;21.10;82.90
53254;DHT22;39148;53.332;6.922;2023-08-06T11:02:36;21.20;82.80
53254;DHT22;39148;53.332;6.922;2023-08-06T11:05:08;21.10;82.90
53254;DHT22;39148;53.332;6.922;2023-08-06T11:07:35;21.20;82.90
53254;DHT22;39148;53.332;6.922;2023-08-06T11:10:06;21.30;82.80
53254;DHT22;39148;53.332;6.922;2023-08-06T11:12:32;21.30;81.60
53254;DHT22;39148;53.332;6.922;2023-08-06T11:14:59;21.30;82.70
53254;DHT22;39148;53.332;6.922;2023-08-06T11:17:25;21.30;82.80
53254;DHT22;39148;53.332;6.922;2023-08-06T11:19:52;21.40;82.80
53254;DHT22;39148;53.332;6.922;2023-08-06T11:22:21;21.50;82.70
53254;DHT22;39148;53.332;6.922;2023-08-06T11:24:50;21.50;82.80
53254;DHT22;39148;53.332;6.922;2023-08-06T11:27:16;21.40;81.40
53254;DHT22;39148;53.332;6.922;2023-08-06T11:29:43;21.50;82.50
53254;DHT22;39148;53.332;6.922;2023-08-06T11:32:10;21.50;82.60
53254;DHT22;39148;53.332;6.922;2023-08-06T11:34:36;21.50;82.50
53254;DHT22;39148;53.332;6.922;2023-08-06T11:37:06;21.50;82.50
53254;DHT22;39148;53.332;6.922;2023-08-06T11:39:36;21.50;82.60
53254;DHT22;39148;53.332;6.922;2023-08-06T11:42:06;21.60;82.70
53254;DHT22;39148;53.332;6.922;2023-08-06T11:44:35;21.60;82.60
53254;DHT22;39148;53.332;6.922;2023-08-06T11:47:04;21.80;82.70
53254;DHT22;39148;53.332;6.922;2023-08-06T11:49:38;21.90;82.60
53254;DHT22;39148;53.332;6.922;2023-08-06T11:52:24;21.70;82.80
53254;DHT22;39148;53.332;6.922;2023-08-06T11:55:04;21.80;82.80
53254;DHT22;39148;53.332;6.922;2023-08-06T11:57:34;21.90;82.70
53254;DHT22;39148;53.332;6.922;2023-08-06T12:00:11;21.80;82.50
53254;DHT22;39148;53.332;6.922;2023-08-06T12:02:41;21.90;82.40
53254;DHT22;39148;53.332;6.922;2023-08-06T12:05:18;21.90;82.50
53254;DHT22;39148;53.332;6.922;2023-08-06T12:07:54;21.90;81.20
53254;DHT22;39148;53.332;6.922;2023-08-06T12:10:21;21.90;80.90
53254;DHT22;39148;53.332;6.922;2023-08-06T12:12:46;22.00;82.00
53254;DHT22;39148;53.332;6.922;2023-08-06T12:15:12;22.00;82.00
53254;DHT22;39148;53.332;6.922;2023-08-06T12:17:38;22.00;81.90
53254;DHT22;39148;53.332;6.922;2023-08-06T12:20:05;22.00;81.80
53254;DHT22;39148;53.332;6.922;2023-08-06T12:22:32;22.00;81.60
53254;DHT22;39148;53.332;6.922;2023-08-06T12:25:05;22.00;81.70
53254;DHT22;39148;53.332;6.922;2023-08-06T12:27:37;22.10;81.50
53254;DHT22;39148;53.332;6.922;2023-08-06T12:30:04;22.10;81.70
53254;DHT22;39148;53.332;6.922;2023-08-06T12:32:30;22.10;81.20
53254;DHT22;39148;53.332;6.922;2023-08-06T12:34:56;22.10;81.40
53254;DHT22;39148;53.332;6.922;2023-08-06T12:37:22;22.20;81.20
53254;DHT22;39148;53.332;6.922;2023-08-06T12:39:48;22.20;81.10
53254;DHT22;39148;53.332;6.922;2023-08-06T12:42:14;22.30;81.00
53254;DHT22;39148;53.332;6.922;2023-08-06T12:44:40;22.20;80.90
53254;DHT22;39148;53.332;6.922;2023-08-06T12:47:07;22.20;80.80
53254;DHT22;39148;53.332;6.922;2023-08-06T12:49:33;22.30;81.00
53254;DHT22;39148;53.332;6.922;2023-08-06T12:51:59;22.30;80.80
53254;DHT22;39148;53.332;6.922;2023-08-06T12:54:28;22.30;79.80
53254;DHT22;39148;53.332;6.922;2023-08-06T12:56:54;22.30;80.80
53254;DHT22;39148;53.332;6.922;2023-08-06T12:59:20;22.30;80.60
53254;DHT22;39148;53.332;6.922;2023-08-06T13:01:46;22.40;80.60
53254;DHT22;39148;53.332;6.922;2023-08-06T13:04:12;22.40;80.40
53254;DHT22;39148;53.332;6.922;2023-08-06T13:06:38;22.40;80.50
53254;DHT22;39148;53.332;6.922;2023-08-06T13:09:09;22.40;80.60
53254;DHT22;39148;53.332;6.922;2023-08-06T13:11:36;22.40;80.70
53254;DHT22;39148;53.332;6.922;2023-08-06T13:14:10;22.50;80.60
53254;DHT22;39148;53.332;6.922;2023-08-06T13:16:37;22.50;80.70
53254;DHT22;39148;53.332;6.922;2023-08-06T13:19:04;22.50;80.50
53254;DHT22;39148;53.332;6.922;2023-08-06T13:24:17;22.60;81.00
53254;DHT22;39148;53.332;6.922;2023-08-06T13:26:43;22.60;80.70
53254;DHT22;39148;53.332;6.922;2023-08-06T13:29:09;22.60;80.50
53254;DHT22;39148;53.332;6.922;2023-08-06T13:31:37;22.60;80.30
53254;DHT22;39148;53.332;6.922;2023-08-06T13:34:03;22.60;80.20
53254;DHT22;39148;53.332;6.922;2023-08-06T13:36:29;22.70;80.20
53254;DHT22;39148;53.332;6.922;2023-08-06T13:38:55;22.50;80.20
53254;DHT22;39148;53.332;6.922;2023-08-06T13:41:20;22.50;80.30
53254;DHT22;39148;53.332;6.922;2023-08-06T13:43:46;22.80;80.40
53254;DHT22;39148;53.332;6.922;2023-08-06T13:46:12;22.70;80.30
53254;DHT22;39148;53.332;6.922;2023-08-06T13:48:42;22.80;80.40
53254;DHT22;39148;53.332;6.922;2023-08-06T13:51:09;22.80;80.40
53254;DHT22;39148;53.332;6.922;2023-08-06T13:53:35;22.90;80.50
53254;DHT22;39148;53.332;6.922;2023-08-06T13:56:00;22.80;80.20
53254;DHT22;39148;53.332;6.922;2023-08-06T13:58:26;22.80;80.30
53254;DHT22;39148;53.332;6.922;2023-08-06T14:00:53;22.90;80.30
53254;DHT22;39148;53.332;6.922;2023-08-06T14:03:20;22.80;80.30
53254;DHT22;39148;53.332;6.922;2023-08-06T14:05:45;22.80;80.30
53254;DHT22;39148;53.332;6.922;2023-08-06T14:08:11;23.00;80.40
53254;DHT22;39148;53.332;6.922;2023-08-06T14:10:37;23.00;80.30
53254;DHT22;39148;53.332;6.922;2023-08-06T14:13:03;22.90;80.30
53254;DHT22;39148;53.332;6.922;2023-08-06T14:15:28;23.00;80.20
53254;DHT22;39148;53.332;6.922;2023-08-06T14:17:54;23.10;80.30
53254;DHT22;39148;53.332;6.922;2023-08-06T14:20:20;22.90;80.20
53254;DHT22;39148;53.332;6.922;2023-08-06T14:22:45;23.10;80.40
53254;DHT22;39148;53.332;6.922;2023-08-06T14:25:11;23.10;80.20
53254;DHT22;39148;53.332;6.922;2023-08-06T14:27:37;23.10;80.30
53254;DHT22;39148;53.332;6.922;2023-08-06T14:30:08;23.20;80.30
53254;DHT22;39148;53.332;6.922;2023-08-06T14:32:34;23.20;79.10
53254;DHT22;39148;53.332;6.922;2023-08-06T14:35:00;23.20;80.20
53254;DHT22;39148;53.332;6.922;2023-08-06T14:37:26;23.20;80.20
53254;DHT22;39148;53.332;6.922;2023-08-06T14:39:52;23.20;80.10
53254;DHT22;39148;53.332;6.922;2023-08-06T14:42:18;23.40;80.10
53254;DHT22;39148;53.332;6.922;2023-08-06T14:44:43;23.20;79.90
53254;DHT22;39148;53.332;6.922;2023-08-06T14:47:09;22.70;79.60
53254;DHT22;39148;53.332;6.922;2023-08-06T14:49:35;23.30;79.90
53254;DHT22;39148;53.332;6.922;2023-08-06T14:52:01;23.40;80.00
53254;DHT22;39148;53.332;6.922;2023-08-06T14:54:27;23.40;80.00
53254;DHT22;39148;53.332;6.922;2023-08-06T14:56:53;23.40;80.00
53254;DHT22;39148;53.332;6.922;2023-08-06T14:59:19;23.40;79.80
53254;DHT22;39148;53.332;6.922;2023-08-06T15:01:44;23.40;79.80
53254;DHT22;39148;53.332;6.922;2023-08-06T15:04:10;23.50;79.80
53254;DHT22;39148;53.332;6.922;2023-08-06T15:06:36;23.50;79.70
53254;DHT22;39148;53.332;6.922;2023-08-06T15:09:02;23.40;79.70
53254;DHT22;39148;53.332;6.922;2023-08-06T15:11:27;23.50;79.60
53254;DHT22;39148;53.332;6.922;2023-08-06T15:13:53;23.50;79.70
53254;DHT22;39148;53.332;6.922;2023-08-06T15:16:19;23.50;79.60
53254;DHT22;39148;53.332;6.922;2023-08-06T15:18:44;23.60;79.70
53254;DHT22;39148;53.332;6.922;2023-08-06T15:21:10;23.60;79.70
53254;DHT22;39148;53.332;6.922;2023-08-06T15:23:36;23.60;79.40
53254;DHT22;39148;53.332;6.922;2023-08-06T15:26:02;23.50;79.60
53254;DHT22;39148;53.332;6.922;2023-08-06T15:28:28;23.50;79.60
53254;DHT22;39148;53.332;6.922;2023-08-06T15:30:54;23.60;79.50
53254;DHT22;39148;53.332;6.922;2023-08-06T15:33:21;23.60;79.60
53254;DHT22;39148;53.332;6.922;2023-08-06T15:35:47;23.70;79.60